createdAt,value
2023-03-06T00:01:08.191Z,100459.41
2023-03-06T00:06:10.692Z,100461.88
2023-03-06T00:11:15.783Z,100454.97
2023-03-06T00:16:18.258Z,100452.50
2023-03-06T00:21:20.610Z,100463.72
2023-03-06T00:26:22.914Z,100458.13
2023-03-06T00:31:25.358Z,100460.63
2023-03-06T00:36:27.920Z,100469.41
2023-03-06T00:41:30.272Z,100462.16
2023-03-06T00:46:33.485Z,100446.88
2023-03-06T00:51:35.845Z,100439.56
2023-03-06T00:56:38.303Z,100430.50
2023-03-06T01:01:40.633Z,100411.53
2023-03-06T01:06:42.959Z,100410.16
2023-03-06T01:11:45.261Z,100413.75
2023-03-06T01:16:50.756Z,100408.53
2023-03-06T01:21:53.065Z,100417.59
2023-03-06T01:26:55.381Z,100405.44
2023-03-06T01:31:57.693Z,100416.59
2023-03-06T01:37:00.104Z,100423.88
2023-03-06T01:42:02.383Z,100421.78
2023-03-06T01:47:04.961Z,100425.16
2023-03-06T01:52:15.711Z,100422.38
2023-03-06T01:57:23.685Z,100420.75
2023-03-06T02:02:26.451Z,100412.56
2023-03-06T02:07:29.290Z,100408.19
2023-03-06T02:12:31.969Z,100415.38
2023-03-06T02:17:35.720Z,100418.72
2023-03-06T02:22:48.067Z,100411.25
2023-03-06T02:27:50.541Z,100423.69
2023-03-06T02:32:53.143Z,100426.13
2023-03-06T02:37:57.846Z,100425.03
2023-03-06T02:43:00.295Z,100423.09
2023-03-06T02:48:04.255Z,100415.94
2023-03-06T02:53:07.965Z,100410.16
2023-03-06T02:58:10.457Z,100399.16
2023-03-06T03:03:14.195Z,100402.75
2023-03-06T03:08:16.561Z,100397.25
2023-03-06T03:13:19.939Z,100392.25
2023-03-06T03:18:23.726Z,100374.56
2023-03-06T03:23:27.641Z,100368.53
2023-03-06T03:28:33.075Z,100363.63
2023-03-06T03:33:35.710Z,100360.59
2023-03-06T03:38:38.192Z,100349.31
2023-03-06T03:43:40.635Z,100357.00
2023-03-06T03:48:43.204Z,100353.16
2023-03-06T03:53:46.281Z,100356.72
2023-03-06T03:58:53.650Z,100370.75
2023-03-06T04:03:57.010Z,100366.88
2023-03-06T04:08:59.612Z,100365.50
2023-03-06T04:14:02.072Z,100354.72
2023-03-06T04:19:05.304Z,100365.91
2023-03-06T04:24:08.289Z,100376.63
2023-03-06T04:29:10.868Z,100369.53
2023-03-06T04:34:13.295Z,100353.34
2023-03-06T04:39:15.744Z,100359.78
2023-03-06T04:44:18.078Z,100361.25
2023-03-06T04:49:20.510Z,100359.38
2023-03-06T04:54:23.021Z,100349.75
2023-03-06T04:59:25.346Z,100353.56
2023-03-06T05:04:27.694Z,100340.53
2023-03-06T05:09:30.083Z,100349.97
2023-03-06T05:14:33.185Z,100349.06
2023-03-06T05:19:35.597Z,100351.63
2023-03-06T06:03:31.175Z,100342.19
2023-03-06T06:08:33.686Z,100342.78
2023-03-06T06:13:36.890Z,100343.84
2023-03-06T06:18:41.307Z,100337.50
2023-03-06T06:23:44.039Z,100332.59
2023-03-06T06:28:46.699Z,100318.84
2023-03-06T06:33:49.265Z,100317.81
2023-03-06T06:38:51.720Z,100309.69
2023-03-06T06:43:54.314Z,100302.09
2023-03-06T06:48:56.804Z,100299.94
2023-03-06T06:54:01.394Z,100299.16
2023-03-06T06:59:16.132Z,100297.72
2023-03-06T07:04:19.741Z,100294.13
2023-03-06T07:09:22.639Z,100286.78
2023-03-06T07:14:25.356Z,100288.56
2023-03-06T07:19:27.832Z,100290.47
2023-03-06T07:24:30.445Z,100283.03
2023-03-06T07:29:34.344Z,100296.63
2023-03-06T07:34:38.040Z,100299.88
2023-03-06T07:39:41.052Z,100289.69
2023-03-06T07:44:43.957Z,100298.03
2023-03-06T07:49:46.726Z,100297.03
2023-03-06T07:54:49.646Z,100306.91
2023-03-06T07:59:52.359Z,100294.19
2023-03-06T08:04:55.934Z,100297.59
2023-03-06T08:09:58.555Z,100282.63
2023-03-06T08:15:01.082Z,100283.38
2023-03-06T08:20:04.286Z,100280.81
2023-03-06T08:25:07.686Z,100285.09
2023-03-06T08:30:10.911Z,100279.75
2023-03-06T08:35:13.584Z,100282.56
2023-03-06T08:40:16.223Z,100285.25
2023-03-06T08:45:18.767Z,100273.59
2023-03-06T08:50:21.371Z,100279.44
2023-03-06T08:55:23.839Z,100282.78
2023-03-06T09:00:26.623Z,100262.34
2023-03-06T09:05:29.116Z,100251.38
2023-03-06T09:10:31.682Z,100246.25
2023-03-06T09:15:34.150Z,100253.25
2023-03-06T09:20:36.770Z,100246.59
2023-03-06T09:25:39.469Z,100259.25
2023-03-06T09:30:42.078Z,100252.44
2023-03-06T09:35:52.279Z,100245.97
2023-03-06T09:41:20.759Z,100241.78
2023-03-06T09:46:41.115Z,100236.06
2023-03-06T09:52:07.164Z,100231.69
2023-03-06T09:57:22.932Z,100233.16
2023-03-06T10:02:38.180Z,100237.03
2023-03-06T10:08:00.981Z,100229.47
2023-03-06T10:13:08.666Z,100239.63
2023-03-06T10:18:12.993Z,100244.31
2023-03-06T10:23:41.560Z,100244.56
2023-03-06T10:28:54.235Z,100245.50
2023-03-06T10:34:23.184Z,100248.09
2023-03-06T10:39:25.750Z,100237.53
2023-03-06T10:44:28.343Z,100234.97
2023-03-06T10:49:35.549Z,100236.22
2023-03-06T10:54:42.631Z,100230.19
2023-03-06T11:00:05.896Z,100222.81
2023-03-06T11:05:26.549Z,100226.19
2023-03-06T11:10:32.189Z,100230.53
2023-03-06T11:15:35.247Z,100232.38
2023-03-06T11:20:52.498Z,100236.97
2023-03-06T11:25:57.308Z,100237.16
2023-03-06T11:31:03.370Z,100243.91
2023-03-06T11:36:15.806Z,100266.53
2023-03-06T11:41:35.477Z,100265.13
2023-03-06T11:46:44.082Z,100263.34
2023-03-06T11:52:03.954Z,100257.69
2023-03-06T11:57:16.429Z,100261.97
2023-03-06T12:02:46.978Z,100270.56
2023-03-06T12:08:18.938Z,100269.78
2023-03-06T12:13:36.742Z,100259.25
2023-03-06T12:18:41.822Z,100257.41
2023-03-06T12:23:55.839Z,100271.53
2023-03-06T12:29:37.265Z,100274.31
2023-03-06T12:35:06.092Z,100274.78
2023-03-06T12:40:32.424Z,100268.88
2023-03-06T12:45:37.353Z,100282.16
2023-03-06T12:50:44.635Z,100285.41
2023-03-06T12:55:50.179Z,100286.06
2023-03-06T13:01:15.561Z,100294.09
2023-03-06T13:06:49.882Z,100293.28
2023-03-06T13:12:27.232Z,100310.91
2023-03-06T13:17:39.433Z,100312.31
2023-03-06T13:22:43.777Z,100326.03
2023-03-06T13:27:55.106Z,100331.00
2023-03-06T13:32:57.623Z,100340.47
2023-03-06T13:38:01.252Z,100333.13
2023-03-06T13:43:09.705Z,100344.22
2023-03-06T13:48:45.591Z,100346.13
2023-03-06T13:54:10.386Z,100344.16
2023-03-06T13:59:31.094Z,100357.72
2023-03-06T14:04:47.753Z,100361.59
2023-03-06T14:10:04.433Z,100365.50
2023-03-06T14:15:17.020Z,100366.38
2023-03-06T14:20:21.531Z,100375.91
2023-03-06T14:25:32.908Z,100396.78
2023-03-06T14:30:35.333Z,100399.06
2023-03-06T14:35:38.550Z,100403.56
2023-03-06T14:40:45.947Z,100410.91
2023-03-06T14:46:00.196Z,100422.53
2023-03-06T14:51:03.075Z,100426.72
2023-03-06T14:56:07.314Z,100426.97
2023-03-06T15:01:11.798Z,100448.00
2023-03-06T15:06:20.395Z,100452.13
2023-03-06T15:11:22.844Z,100451.22
2023-03-06T15:16:30.096Z,100465.69
2023-03-06T15:21:37.743Z,100474.66
2023-03-06T15:26:41.030Z,100480.97
2023-03-06T15:31:45.187Z,100500.56
2023-03-06T15:36:58.088Z,100509.31
2023-03-06T15:42:05.029Z,100511.25
2023-03-06T15:47:12.704Z,100525.50
2023-03-06T15:52:15.134Z,100531.13
2023-03-06T15:57:31.435Z,100543.19
2023-03-06T16:02:34.188Z,100544.72
2023-03-06T16:07:36.753Z,100546.47
2023-03-06T16:12:39.452Z,100549.88
2023-03-06T16:17:41.873Z,100556.34
2023-03-06T16:22:46.372Z,100571.63
2023-03-06T16:27:58.316Z,100576.41
2023-03-06T16:33:01.254Z,100575.91
2023-03-06T16:38:03.732Z,100588.88
2023-03-06T16:43:06.198Z,100593.88
2023-03-06T16:48:16.150Z,100613.22
2023-03-06T16:53:18.813Z,100618.47
2023-03-06T16:58:21.993Z,100623.75
2023-03-06T17:03:25.494Z,100630.94
2023-03-06T17:08:28.114Z,100642.53
2023-03-06T17:13:30.632Z,100644.19
2023-03-06T17:18:33.907Z,100654.13
2023-03-06T17:23:36.748Z,100661.88
2023-03-06T17:28:39.913Z,100669.56
2023-03-06T17:33:42.581Z,100672.88
2023-03-06T17:38:45.104Z,100683.88
2023-03-06T17:43:47.522Z,100683.34
2023-03-06T17:48:50.216Z,100692.16
2023-03-06T17:53:53.494Z,100691.53
2023-03-06T17:58:57.573Z,100705.59
2023-03-06T18:04:00.029Z,100708.59
2023-03-06T18:09:02.628Z,100719.84
2023-03-06T18:14:05.675Z,100728.66
2023-03-06T18:19:11.558Z,100727.81
2023-03-06T18:24:14.014Z,100738.25
2023-03-06T18:29:16.826Z,100744.59
2023-03-06T18:34:19.420Z,100736.88
2023-03-06T18:39:22.062Z,100736.59
2023-03-06T18:44:24.580Z,100737.41
2023-03-06T18:49:27.136Z,100747.03
2023-03-06T18:54:29.979Z,100754.69
2023-03-06T18:59:32.490Z,100760.75
2023-03-06T19:04:37.518Z,100754.69
2023-03-06T19:09:40.264Z,100769.84
2023-03-06T19:14:42.902Z,100772.84
2023-03-06T19:19:45.372Z,100778.34
2023-03-06T19:24:50.334Z,100787.91
2023-03-06T19:29:52.813Z,100789.47
2023-03-06T19:34:58.944Z,100800.25
2023-03-06T19:40:03.255Z,100808.75
2023-03-06T19:45:07.008Z,100820.84
2023-03-06T19:50:10.231Z,100823.88
2023-03-06T19:55:12.688Z,100829.09
2023-03-06T20:00:15.592Z,100835.91
2023-03-06T20:05:18.333Z,100835.06
2023-03-06T20:10:20.950Z,100838.38
2023-03-06T20:15:23.624Z,100848.53
2023-03-06T20:20:26.016Z,100842.16
2023-03-06T20:25:29.018Z,100854.03
2023-03-06T20:30:38.213Z,100850.38
2023-03-06T20:35:44.393Z,100849.63
2023-03-06T20:40:47.150Z,100848.16
2023-03-06T20:46:00.696Z,100856.16
2023-03-06T20:51:16.488Z,100866.31
2023-03-06T20:56:22.260Z,100874.03
2023-03-06T21:01:32.103Z,100875.13
2023-03-06T21:06:34.645Z,100879.16
2023-03-06T21:11:37.129Z,100884.66
2023-03-06T21:16:39.578Z,100894.53
2023-03-06T21:21:42.352Z,100897.84
2023-03-06T21:26:44.851Z,100908.22
2023-03-06T21:31:47.332Z,100922.22
2023-03-06T21:36:51.413Z,100919.75
2023-03-06T21:41:53.997Z,100917.50
2023-03-06T21:46:56.535Z,100910.03
2023-03-06T21:51:59.042Z,100930.38
2023-03-06T21:57:01.589Z,100926.59
2023-03-06T22:02:04.162Z,100939.00
2023-03-06T22:07:06.712Z,100952.47
2023-03-06T22:12:09.317Z,100951.28
2023-03-06T22:17:11.917Z,100955.75
2023-03-06T22:22:14.455Z,100944.44
2023-03-06T22:27:17.100Z,100945.78
2023-03-06T22:32:19.823Z,100961.44
2023-03-06T22:37:22.383Z,100950.06
2023-03-06T22:42:24.816Z,100962.94
2023-03-06T22:47:27.274Z,100961.25
2023-03-06T22:52:29.681Z,100982.44
2023-03-06T22:57:32.382Z,100996.75
2023-03-06T23:02:35.677Z,100999.50
2023-03-06T23:07:38.306Z,101012.59
2023-03-06T23:12:41.968Z,101005.88
2023-03-06T23:18:03.156Z,101016.69
2023-03-06T23:23:24.030Z,101018.34
2023-03-06T23:28:26.914Z,101018.09
2023-03-06T23:33:29.324Z,101016.63
2023-03-06T23:38:32.076Z,101025.56
2023-03-06T23:43:35.212Z,101016.63
2023-03-06T23:48:40.827Z,101029.78
2023-03-06T23:53:45.141Z,101037.09
2023-03-06T23:58:48.482Z,101036.41
